Pagrindinis puslapis
METAR-TAF:

METAR-TAF

Oro uostai :

Weipa, Australija

platuma: 12-40-43S, ilguma: 141-55-31E, Aukštis: 19 m

Dabartinis oras

Ataskaita buvo paskelbta 9 minutes, ne 20:00 UTC
Vėjas 10 kt iš Rytų
Temperatūra 24°C
Drėgmė 74%
Slėgis 1014 hPa
Matomumas 10 km arba daugiau
Su prošvaistėmis ne aukštis 2800 ft
Su prošvaistėmis ne aukštis 3600 ft

METAR: YBWP 202000Z AUTO 10010KT 9999 // BKN028 BKN036 24/19 Q1014

Laikas: 06:09 (20:09 UTC)


TAF: trūkstamas

Orai ataskaitas ir orų prognozės (METAR, TAF).

turimą stotys yra geltonos ir raudonos taškus žemėlapyje.

Perkelti pele per norėdami pamatyti stoties vardą.

Tada spustelėkite, norėdami matyti oro stebėjimo ir prognozės.

Norėdami pakeisti žemėlapį: spustelėkite ant žalios mygtukų su juodo kryžiaus žemyn,; žalią mygtuką su brūkšneliu, jei norite nutolinti; arba žalių rodyklių gretimoms žemėlapius.


METAR-TAF: